Time;durP1;ratioP1;P1;durP2;ratioP2;P2;SDS_P1;SDS_P2;PMS_P1;PMS_P2;Temp;Humidity;BMP_temperature;BMP_pressure;BME280_temperature;BME280_humidity;BME280_pressure;Samples;Min_cycle;Max_cycle;Signal;HPM_P1;HPM_P2
2022/03/11 00:02:28;;;;;;;14.03;6.80;;;-2.80;1.00;;;;;;8351739;28;20279;-64
2022/03/11 00:06:28;;;;;;;14.73;7.50;;;-2.90;1.00;;;;;;8335265;28;20225;-65
2022/03/11 00:10:30;;;;;;;13.70;6.70;;;-2.90;1.00;;;;;;8334679;28;20542;-64
2022/03/11 00:14:31;;;;;;;12.73;7.67;;;-3.00;1.00;;;;;;8353690;28;20205;-66
2022/03/11 00:18:32;;;;;;;19.47;9.00;;;-3.00;1.00;;;;;;8334314;28;20220;-66
2022/03/11 00:22:34;;;;;;;13.50;7.33;;;-3.00;1.00;;;;;;8329912;28;20299;-64
2022/03/11 00:26:35;;;;;;;18.97;8.07;;;-3.00;1.00;;;;;;8343031;28;20267;-63
2022/03/11 00:30:36;;;;;;;14.70;7.23;;;-3.00;9.70;;;;;;8327056;28;20224;-63
2022/03/11 00:34:37;;;;;;;18.60;7.73;;;-3.00;22.70;;;;;;8326565;28;20201;-65
2022/03/11 00:38:37;;;;;;;18.07;7.93;;;-3.00;1.00;;;;;;8345785;28;20301;-66
2022/03/11 00:42:39;;;;;;;18.00;7.97;;;-3.00;1.80;;;;;;8334472;28;20220;-64
2022/03/11 00:46:41;;;;;;;17.07;8.13;;;-3.00;16.50;;;;;;8350975;28;20220;-63
2022/03/11 00:50:42;;;;;;;19.23;8.77;;;-3.00;14.90;;;;;;8350594;28;20740;-63
2022/03/11 00:54:42;;;;;;;17.07;8.90;;;-3.10;59.60;;;;;;8351124;28;20201;-65
2022/03/11 00:58:45;;;;;;;19.40;8.87;;;-3.10;99.90;;;;;;8351026;28;20263;-63
2022/03/11 01:02:46;;;;;;;15.53;8.10;;;-3.20;99.90;;;;;;8330192;28;20202;-66
2022/03/11 01:06:47;;;;;;;19.90;8.60;;;-3.20;99.90;;;;;;8333685;28;20235;-65
2022/03/11 01:10:47;;;;;;;16.73;8.90;;;-3.20;99.90;;;;;;8350971;28;20213;-65
2022/03/11 01:14:48;;;;;;;18.33;8.70;;;-3.20;99.90;;;;;;8350115;28;20265;-65
2022/03/11 01:18:50;;;;;;;19.73;9.67;;;-3.30;99.90;;;;;;8347265;28;20206;-64
2022/03/11 01:22:50;;;;;;;21.20;8.90;;;-3.30;99.90;;;;;;8333060;28;20236;-64
2022/03/11 01:26:51;;;;;;;20.53;8.83;;;-3.20;99.90;;;;;;8327425;28;20229;-63
2022/03/11 01:30:52;;;;;;;19.90;8.73;;;-3.30;99.90;;;;;;8330779;28;20205;-63
2022/03/11 01:34:53;;;;;;;23.37;8.80;;;-3.30;99.90;;;;;;8350455;28;20212;-63
2022/03/11 01:38:54;;;;;;;20.30;9.30;;;-3.40;99.90;;;;;;8329981;28;20693;-65
2022/03/11 01:42:55;;;;;;;21.70;8.87;;;-3.40;99.90;;;;;;8332250;28;20207;-63
2022/03/11 01:46:56;;;;;;;18.77;8.67;;;-3.50;99.90;;;;;;8325847;28;20290;-65
2022/03/11 01:50:57;;;;;;;21.47;8.50;;;-3.50;1.00;;;;;;8341359;28;20247;-65
2022/03/11 01:54:57;;;;;;;21.13;8.80;;;-3.50;1.00;;;;;;8336276;28;20274;-63
2022/03/11 01:59:01;;;;;;;16.83;8.90;;;-3.50;1.00;;;;;;8325653;28;20223;-64
2022/03/11 02:03:02;;;;;;;19.83;8.87;;;-3.50;1.00;;;;;;8326751;28;20215;-66
2022/03/11 02:07:04;;;;;;;18.93;8.20;;;-3.50;1.00;;;;;;8317560;28;20223;-63
2022/03/11 02:11:06;;;;;;;18.87;9.43;;;-3.50;1.00;;;;;;8345776;28;20239;-63
2022/03/11 02:15:09;;;;;;;19.07;8.93;;;-3.60;1.00;;;;;;8325849;28;20215;-65
2022/03/11 02:19:10;;;;;;;19.37;9.03;;;-3.60;1.00;;;;;;8338211;28;20241;-63
2022/03/11 02:23:13;;;;;;;20.67;9.83;;;-3.70;1.00;;;;;;8329749;28;20209;-63
2022/03/11 02:27:14;;;;;;;20.83;9.50;;;-3.70;1.00;;;;;;8322787;28;20234;-65
2022/03/11 02:31:17;;;;;;;16.97;8.70;;;-3.70;1.00;;;;;;8346206;28;20289;-64
2022/03/11 02:35:19;;;;;;;17.43;9.00;;;-3.70;1.00;;;;;;8343559;28;20637;-64
2022/03/11 02:39:20;;;;;;;17.67;8.67;;;-3.70;1.00;;;;;;8348704;28;20259;-66
2022/03/11 02:43:21;;;;;;;20.07;9.23;;;-3.80;1.00;;;;;;8329852;28;20218;-65
2022/03/11 02:47:22;;;;;;;20.33;9.23;;;-3.80;1.00;;;;;;8334999;28;20372;-65
2022/03/11 02:51:23;;;;;;;20.07;8.87;;;-3.80;1.00;;;;;;8327372;28;20241;-64
2022/03/11 02:55:24;;;;;;;19.33;9.07;;;-3.80;1.00;;;;;;8329178;28;20217;-65
2022/03/11 02:59:25;;;;;;;15.97;9.00;;;-3.80;1.00;;;;;;8321535;28;20228;-63
2022/03/11 03:03:25;;;;;;;19.43;8.50;;;-3.80;1.00;;;;;;8343449;28;20238;-64
2022/03/11 03:07:26;;;;;;;19.83;9.30;;;-3.80;1.50;;;;;;8339080;28;20288;-64
2022/03/11 03:11:27;;;;;;;21.07;9.37;;;-3.90;99.90;;;;;;8342222;28;20214;-64
2022/03/11 03:15:28;;;;;;;19.13;8.37;;;-3.90;93.20;;;;;;8331518;28;20555;-64
2022/03/11 03:19:29;;;;;;;19.47;8.40;;;-3.90;99.90;;;;;;8338343;28;20241;-65
2022/03/11 03:23:29;;;;;;;17.53;8.63;;;-3.90;99.90;;;;;;8330707;28;20310;-63
2022/03/11 03:27:30;;;;;;;17.33;8.57;;;-4.00;99.90;;;;;;8346095;28;20259;-64
2022/03/11 03:31:31;;;;;;;18.27;9.57;;;-4.10;99.90;;;;;;8332400;28;20214;-64
2022/03/11 03:35:32;;;;;;;19.10;8.80;;;-4.10;1.00;;;;;;8348503;28;20216;-63
2022/03/11 03:39:37;;;;;;;16.40;8.33;;;-4.20;1.00;;;;;;8332234;28;20613;-64
2022/03/11 03:43:38;;;;;;;19.17;9.07;;;-4.20;1.00;;;;;;8329075;28;20218;-63
2022/03/11 03:47:39;;;;;;;20.23;9.23;;;-4.20;46.00;;;;;;8329328;28;20280;-65
2022/03/11 03:51:40;;;;;;;28.30;10.97;;;-4.30;99.90;;;;;;8352568;28;20206;-63
2022/03/11 03:55:41;;;;;;;20.67;9.87;;;-4.30;99.90;;;;;;8335451;28;20210;-62
2022/03/11 03:59:41;;;;;;;21.07;9.57;;;-4.30;99.90;;;;;;8337035;28;20227;-63
2022/03/11 04:03:42;;;;;;;20.80;9.90;;;-4.30;1.00;;;;;;8352986;28;20256;-65
2022/03/11 04:07:45;;;;;;;19.93;10.20;;;-4.30;99.90;;;;;;8352461;28;20231;-62
2022/03/11 04:11:46;;;;;;;19.83;9.70;;;-4.30;99.90;;;;;;8335237;28;20215;-63
2022/03/11 04:15:47;;;;;;;21.53;9.87;;;-4.30;99.90;;;;;;8352270;28;20213;-63
2022/03/11 04:19:48;;;;;;;25.37;11.77;;;-4.40;1.00;;;;;;8334538;28;20210;-63
2022/03/11 04:23:50;;;;;;;26.47;11.33;;;-4.40;1.00;;;;;;8334973;28;20216;-63
2022/03/11 04:27:50;;;;;;;23.27;9.63;;;-4.40;99.90;;;;;;8333216;28;20229;-62
2022/03/11 04:31:51;;;;;;;18.33;9.87;;;-4.40;99.90;;;;;;8331564;28;20283;-63
2022/03/11 04:35:52;;;;;;;22.03;10.90;;;-4.40;99.90;;;;;;8351311;28;20551;-64
2022/03/11 04:39:53;;;;;;;24.27;10.53;;;-4.40;99.90;;;;;;8346430;28;20216;-64
2022/03/11 04:43:54;;;;;;;22.53;11.00;;;-4.50;99.90;;;;;;8339026;28;20202;-65
2022/03/11 04:47:54;;;;;;;23.93;11.13;;;-4.50;99.90;;;;;;8341605;28;20440;-63
2022/03/11 04:51:55;;;;;;;20.73;11.03;;;-4.50;99.90;;;;;;8330080;28;20207;-63
2022/03/11 04:55:56;;;;;;;19.67;9.40;;;-4.50;99.90;;;;;;8343166;28;20214;-63
2022/03/11 04:59:57;;;;;;;22.20;11.00;;;-4.60;99.90;;;;;;8329848;28;20360;-63
2022/03/11 05:03:58;;;;;;;20.00;10.77;;;-4.60;1.00;;;;;;8348209;28;20204;-63
2022/03/11 05:08:00;;;;;;;24.97;11.00;;;-4.60;1.00;;;;;;8324826;28;20247;-63
2022/03/11 05:12:01;;;;;;;22.47;10.77;;;-4.60;1.00;;;;;;8330872;28;20221;-64
2022/03/11 05:16:02;;;;;;;20.43;11.07;;;-4.60;1.00;;;;;;8348168;28;20235;-64
2022/03/11 05:20:07;;;;;;;22.63;11.67;;;-4.70;1.00;;;;;;8322400;28;20205;-63
2022/03/11 05:24:08;;;;;;;26.87;11.67;;;-4.70;85.80;;;;;;8329730;28;20288;-63
2022/03/11 05:28:09;;;;;;;31.73;16.77;;;-4.70;1.00;;;;;;8331544;28;20671;-64
2022/03/11 05:32:10;;;;;;;24.30;13.07;;;-4.70;1.00;;;;;;8339046;28;20236;-64
2022/03/11 05:36:11;;;;;;;25.90;11.70;;;-4.70;1.00;;;;;;8331179;28;20207;-63
2022/03/11 05:40:12;;;;;;;29.53;13.50;;;-4.70;1.00;;;;;;8342220;28;20266;-64
2022/03/11 05:44:16;;;;;;;29.87;15.40;;;-4.70;99.90;;;;;;8327020;28;20482;-64
2022/03/11 05:48:17;;;;;;;26.70;13.70;;;-4.70;99.90;;;;;;8320961;28;20241;-63
2022/03/11 05:52:18;;;;;;;34.33;18.70;;;-4.60;99.90;;;;;;8323945;28;20206;-63
2022/03/11 05:56:20;;;;;;;26.20;14.60;;;-4.50;99.90;;;;;;8332591;28;20229;-63
2022/03/11 06:00:22;;;;;;;31.10;17.53;;;-4.50;30.10;;;;;;8347047;28;20207;-64
2022/03/11 06:04:23;;;;;;;34.87;13.10;;;-4.40;1.00;;;;;;8331892;28;20211;-64
2022/03/11 06:08:24;;;;;;;22.43;12.07;;;-4.40;1.00;;;;;;8349243;28;20227;-63
2022/03/11 06:12:25;;;;;;;25.93;14.33;;;-4.20;99.90;;;;;;8332148;28;20272;-62
2022/03/11 06:16:26;;;;;;;27.40;11.50;;;-4.10;99.90;;;;;;8349081;28;20219;-63
2022/03/11 06:20:29;;;;;;;38.47;14.33;;;-3.90;99.90;;;;;;8349094;28;20210;-63
2022/03/11 06:24:30;;;;;;;29.00;15.90;;;-3.80;1.00;;;;;;8349179;28;20294;-63
2022/03/11 06:28:32;;;;;;;28.00;11.73;;;-3.60;1.00;;;;;;8347967;28;20239;-64
2022/03/11 06:32:39;;;;;;;25.40;11.03;;;-3.50;99.90;;;;;;8327903;28;20211;-65
2022/03/11 06:36:39;;;;;;;56.07;25.10;;;-3.40;99.90;;;;;;8349256;28;20207;-64
2022/03/11 06:40:40;;;;;;;42.40;16.53;;;-3.30;99.90;;;;;;8341208;28;20200;-65
2022/03/11 06:44:41;;;;;;;26.67;13.10;;;-3.20;99.90;;;;;;8346132;28;20207;-64
2022/03/11 06:48:42;;;;;;;24.60;11.93;;;-3.10;22.00;;;;;;8330118;28;20219;-66
2022/03/11 06:52:44;;;;;;;30.80;14.87;;;-3.00;1.00;;;;;;8330427;28;20201;-65
2022/03/11 06:56:45;;;;;;;36.33;15.20;;;-2.80;1.00;;;;;;8331517;28;20533;-67
2022/03/11 07:00:45;;;;;;;30.03;13.47;;;-2.70;99.90;;;;;;8350224;28;20491;-65
2022/03/11 07:04:46;;;;;;;31.40;13.93;;;-2.60;99.90;;;;;;8354544;28;20297;-67
2022/03/11 07:08:47;;;;;;;26.33;12.27;;;-2.50;99.90;;;;;;8336055;28;20221;-65
2022/03/11 07:12:48;;;;;;;26.93;13.77;;;-2.40;99.90;;;;;;8353759;28;20197;-65
2022/03/11 07:16:52;;;;;;;36.13;14.97;;;-2.20;99.90;;;;;;8353826;28;20205;-64
2022/03/11 07:20:53;;;;;;;33.37;13.83;;;-2.10;99.90;;;;;;8336013;28;20204;-64
2022/03/11 07:24:54;;;;;;;23.57;11.63;;;-2.00;99.90;;;;;;8337559;28;20209;-65
2022/03/11 07:28:55;;;;;;;25.67;12.03;;;-1.80;1.00;;;;;;8332594;28;20233;-64
2022/03/11 07:32:56;;;;;;;24.57;11.10;;;-1.70;1.00;;;;;;8329845;28;20205;-64
2022/03/11 07:36:56;;;;;;;21.10;9.53;;;-1.60;1.00;;;;;;8348877;28;20208;-65
2022/03/11 07:40:59;;;;;;;20.10;10.33;;;-1.40;1.00;;;;;;8331810;28;20206;-65
2022/03/11 07:45:00;;;;;;;18.33;10.17;;;-1.30;99.90;;;;;;8322540;28;20231;-66
2022/03/11 07:49:01;;;;;;;18.47;10.97;;;-1.20;99.90;;;;;;8348326;28;20263;-64
2022/03/11 07:53:02;;;;;;;22.90;11.37;;;-1.10;99.90;;;;;;8333144;28;20219;-65
2022/03/11 07:57:04;;;;;;;26.53;13.63;;;-0.90;99.90;;;;;;8328380;28;20197;-67
2022/03/11 08:01:08;;;;;;;20.07;10.23;;;-0.80;99.90;;;;;;8332771;28;20218;-65
2022/03/11 08:05:14;;;;;;;20.53;10.20;;;-0.60;99.90;;;;;;8326937;28;20209;-65
2022/03/11 08:09:14;;;;;;;22.33;10.10;;;-0.50;99.90;;;;;;8328366;28;20209;-65
2022/03/11 08:13:15;;;;;;;19.23;9.10;;;-0.30;93.60;;;;;;8349537;28;20214;-65
2022/03/11 08:17:16;;;;;;;18.70;10.37;;;-0.20;1.00;;;;;;8333705;28;20505;-65
2022/03/11 08:21:17;;;;;;;22.57;11.03;;;-0.10;1.00;;;;;;8345967;28;20347;-64
2022/03/11 08:25:18;;;;;;;17.40;10.40;;;0.00;1.00;;;;;;8321849;28;20297;-65
2022/03/11 08:29:20;;;;;;;21.87;10.90;;;0.10;1.00;;;;;;8332844;28;20205;-64
2022/03/11 08:33:23;;;;;;;16.47;10.17;;;0.20;1.00;;;;;;8331405;28;20209;-64
2022/03/11 08:37:25;;;;;;;21.50;9.83;;;0.30;1.00;;;;;;8324205;28;20255;-64
2022/03/11 08:41:27;;;;;;;25.20;10.53;;;0.50;1.00;;;;;;8349825;28;20285;-64
2022/03/11 08:45:28;;;;;;;17.00;9.67;;;0.60;99.90;;;;;;8349209;28;20213;-63
2022/03/11 08:49:29;;;;;;;18.37;10.13;;;0.70;99.90;;;;;;8350063;28;20237;-63
2022/03/11 08:53:30;;;;;;;29.27;13.63;;;0.90;99.90;;;;;;8351701;28;20206;-62
2022/03/11 08:57:31;;;;;;;18.20;9.13;;;1.10;99.90;;;;;;8351048;28;20647;-63
2022/03/11 09:01:32;;;;;;;18.97;9.73;;;1.20;99.90;;;;;;8332379;28;20262;-63
2022/03/11 09:05:33;;;;;;;26.17;12.20;;;1.30;99.90;;;;;;8333459;28;20235;-64
2022/03/11 09:09:36;;;;;;;19.83;9.90;;;1.40;99.90;;;;;;8351151;28;20254;-64
2022/03/11 09:13:37;;;;;;;19.53;10.33;;;1.60;99.90;;;;;;8351039;28;20268;-63
2022/03/11 09:17:38;;;;;;;19.00;9.10;;;1.70;99.90;;;;;;8350180;28;20450;-65
2022/03/11 09:21:41;;;;;;;20.77;9.00;;;1.90;99.90;;;;;;8332806;28;20220;-63
2022/03/11 09:25:41;;;;;;;16.97;8.83;;;1.90;99.90;;;;;;8349910;28;20267;-64
2022/03/11 09:29:42;;;;;;;17.10;8.53;;;2.00;99.90;;;;;;8349719;28;20227;-62
2022/03/11 09:33:43;;;;;;;14.80;8.17;;;2.10;99.90;;;;;;8338587;28;20198;-64
2022/03/11 09:37:44;;;;;;;22.73;8.67;;;2.10;99.90;;;;;;8346079;28;20232;-64
2022/03/11 09:41:46;;;;;;;16.10;8.90;;;2.20;99.90;;;;;;8330383;28;20205;-62
2022/03/11 09:45:47;;;;;;;15.03;8.83;;;2.20;99.90;;;;;;8325530;28;20210;-64
2022/03/11 09:49:49;;;;;;;17.33;8.30;;;2.30;99.90;;;;;;8345565;28;20292;-64
2022/03/11 09:53:51;;;;;;;16.13;8.73;;;2.40;99.80;;;;;;8349298;28;20212;-63
2022/03/11 09:57:53;;;;;;;19.20;8.93;;;2.40;95.60;;;;;;8345163;28;20209;-62
2022/03/11 10:01:54;;;;;;;17.17;8.83;;;2.50;69.70;;;;;;8332672;28;20217;-63
2022/03/11 10:05:55;;;;;;;16.47;8.70;;;2.60;60.30;;;;;;8338688;28;20218;-63
2022/03/11 10:09:58;;;;;;;16.67;8.30;;;2.70;40.50;;;;;;8327486;28;20232;-66
2022/03/11 10:14:07;;;;;;;22.40;9.27;;;2.80;24.60;;;;;;8329879;28;20213;-62
2022/03/11 10:18:09;;;;;;;17.93;9.10;;;2.90;1.00;;;;;;8330059;28;20209;-63
2022/03/11 10:22:10;;;;;;;18.57;8.60;;;2.90;5.70;;;;;;8331389;28;20197;-63
2022/03/11 10:26:11;;;;;;;20.70;10.13;;;3.00;1.00;;;;;;8346209;28;20294;-62
2022/03/11 10:30:16;;;;;;;19.97;9.63;;;3.30;1.00;;;;;;8331338;28;20209;-64
2022/03/11 10:34:25;;;;;;;17.57;9.90;;;3.40;1.00;;;;;;8345130;28;20210;-63
2022/03/11 10:38:26;;;;;;;14.07;7.17;;;3.50;1.00;;;;;;8340775;28;20209;-64
2022/03/11 10:42:28;;;;;;;11.73;7.00;;;3.70;1.00;;;;;;8331281;28;20244;-63
2022/03/11 10:46:28;;;;;;;13.00;7.67;;;3.70;1.00;;;;;;8348563;28;20236;-62
2022/03/11 10:50:36;;;;;;;13.57;7.77;;;3.80;1.00;;;;;;8348507;28;20206;-63
2022/03/11 10:54:43;;;;;;;13.90;7.13;;;3.90;1.00;;;;;;8336146;28;20327;-63
2022/03/11 10:58:43;;;;;;;15.57;7.07;;;3.90;1.00;;;;;;8347103;28;20204;-63
2022/03/11 11:02:44;;;;;;;16.97;7.27;;;4.00;1.00;;;;;;8344653;28;20205;-64
2022/03/11 11:06:46;;;;;;;16.97;8.43;;;4.00;1.00;;;;;;8330980;28;20229;-63
2022/03/11 11:10:47;;;;;;;15.77;7.77;;;4.10;1.00;;;;;;8348450;28;20199;-64
2022/03/11 11:14:47;;;;;;;19.60;8.83;;;4.10;1.00;;;;;;8330777;28;20292;-63
2022/03/11 11:18:51;;;;;;;13.10;7.00;;;4.20;1.00;;;;;;8347337;28;20438;-64
2022/03/11 11:22:53;;;;;;;12.47;6.60;;;4.20;1.00;;;;;;8330545;28;20232;-65
2022/03/11 11:26:57;;;;;;;14.20;7.67;;;4.30;1.00;;;;;;8325280;28;20268;-62
2022/03/11 11:30:58;;;;;;;10.33;6.17;;;4.40;1.00;;;;;;8345725;28;20210;-63
2022/03/11 11:35:30;;;;;;;15.63;7.97;;;4.40;1.00;;;;;;8323471;28;20210;-63
2022/03/11 11:39:41;;;;;;;16.77;9.03;;;4.50;1.00;;;;;;8323322;28;20211;-66
2022/03/11 11:43:59;;;;;;;12.40;7.60;;;4.70;1.00;;;;;;8318436;28;20207;-65
2022/03/11 11:48:00;;;;;;;15.07;7.73;;;4.80;1.00;;;;;;8327355;28;20286;-63
2022/03/11 11:52:04;;;;;;;11.80;7.10;;;4.90;1.00;;;;;;8351839;28;20201;-61
2022/03/11 11:56:30;;;;;;;13.03;6.73;;;5.00;1.00;;;;;;8327420;28;20206;-65
2022/03/11 12:00:38;;;;;;;8.47;5.83;;;5.00;1.00;;;;;;8327465;28;20213;-61
2022/03/11 12:04:39;;;;;;;11.50;6.07;;;5.10;1.00;;;;;;8332210;28;20209;-64
2022/03/11 12:08:48;;;;;;;9.17;5.67;;;5.20;1.00;;;;;;8326473;28;20245;-62
2022/03/11 12:12:49;;;;;;;10.23;4.87;;;5.20;1.00;;;;;;8329271;28;20311;-65
2022/03/11 12:17:01;;;;;;;7.80;4.83;;;5.20;1.00;;;;;;8349927;28;20306;-62
2022/03/11 12:21:01;;;;;;;10.77;6.20;;;5.30;1.00;;;;;;8333449;28;20209;-65
2022/03/11 12:25:11;;;;;;;6.83;4.67;;;5.50;1.00;;;;;;8323520;28;20243;-64
2022/03/11 12:29:34;;;;;;;8.33;4.93;;;5.70;1.00;;;;;;8334516;28;20275;-64
2022/03/11 12:33:39;;;;;;;12.83;7.30;;;5.80;1.00;;;;;;8326596;28;20232;-64
2022/03/11 12:37:40;;;;;;;9.80;4.83;;;5.80;1.00;;;;;;8331814;28;20406;-63
2022/03/11 12:41:43;;;;;;;12.37;5.90;;;5.90;1.00;;;;;;8322394;28;20194;-63
2022/03/11 12:45:55;;;;;;;9.77;4.40;;;6.00;1.00;;;;;;8329133;28;20228;-64
2022/03/11 12:50:04;;;;;;;7.63;4.37;;;5.90;1.00;;;;;;8349533;28;20294;-64
2022/03/11 12:54:15;;;;;;;8.70;4.00;;;5.90;1.00;;;;;;8343684;28;20573;-63
2022/03/11 12:58:25;;;;;;;8.17;4.30;;;5.80;1.00;;;;;;8340443;28;20292;-62
2022/03/11 13:02:26;;;;;;;8.07;4.47;;;5.90;1.00;;;;;;8349235;28;20221;-64
2022/03/11 13:06:27;;;;;;;7.77;4.53;;;5.90;1.00;;;;;;8350331;28;20505;-65
2022/03/11 13:10:28;;;;;;;7.53;4.20;;;5.90;1.00;;;;;;8330602;28;20205;-65
2022/03/11 13:14:29;;;;;;;8.73;5.07;;;6.00;1.00;;;;;;8325696;28;20206;-65
2022/03/11 13:18:32;;;;;;;9.43;4.93;;;6.10;1.00;;;;;;8321730;28;20231;-65
2022/03/11 13:22:33;;;;;;;9.30;4.33;;;6.20;1.00;;;;;;8341013;28;20285;-65
2022/03/11 13:26:34;;;;;;;8.10;4.67;;;6.10;1.00;;;;;;8332607;28;20308;-65
2022/03/11 13:30:37;;;;;;;7.10;4.53;;;6.00;1.00;;;;;;8346743;28;20201;-64
2022/03/11 13:34:38;;;;;;;8.33;4.07;;;6.10;1.00;;;;;;8330736;28;20296;-62
2022/03/11 13:38:46;;;;;;;8.73;4.47;;;6.10;1.00;;;;;;8328909;28;20234;-62
2022/03/11 13:43:00;;;;;;;9.90;5.30;;;6.00;1.00;;;;;;8332487;28;20201;-63
2022/03/11 13:47:03;;;;;;;7.50;4.77;;;6.00;1.00;;;;;;8346365;28;20263;-64
2022/03/11 13:51:09;;;;;;;7.33;4.93;;;6.00;1.00;;;;;;8338755;28;20208;-66
2022/03/11 13:55:10;;;;;;;10.73;4.27;;;6.10;1.00;;;;;;8341091;28;20209;-63
2022/03/11 13:59:11;;;;;;;6.03;3.77;;;6.10;1.00;;;;;;8330839;28;20217;-64
2022/03/11 14:03:19;;;;;;;10.80;5.87;;;6.10;1.00;;;;;;8345243;28;20206;-62
2022/03/11 14:07:24;;;;;;;13.17;8.90;;;6.10;1.00;;;;;;8323860;28;20308;-65
2022/03/11 14:11:25;;;;;;;16.70;11.37;;;6.00;1.00;;;;;;8329481;28;20220;-65
2022/03/11 14:15:31;;;;;;;11.60;4.87;;;6.10;1.00;;;;;;8327966;28;20210;-63
2022/03/11 14:19:32;;;;;;;7.07;4.23;;;6.10;1.00;;;;;;8325158;28;20508;-62
2022/03/11 14:23:33;;;;;;;7.17;4.30;;;6.20;1.00;;;;;;8349363;28;20201;-63
2022/03/11 14:27:34;;;;;;;8.60;5.50;;;6.10;1.00;;;;;;8344402;28;20229;-64
2022/03/11 14:31:35;;;;;;;8.70;4.97;;;6.00;1.00;;;;;;8330845;28;20195;-64
2022/03/11 14:35:37;;;;;;;9.87;4.90;;;6.00;1.00;;;;;;8329611;28;20233;-63
2022/03/11 14:39:38;;;;;;;7.67;4.20;;;5.90;1.00;;;;;;8326782;28;20216;-63
2022/03/11 14:43:39;;;;;;;10.43;5.20;;;5.90;1.00;;;;;;8321395;28;20213;-62
2022/03/11 14:47:42;;;;;;;6.97;4.73;;;5.90;1.00;;;;;;8324299;28;20285;-63
2022/03/11 14:51:43;;;;;;;8.63;4.63;;;5.90;1.00;;;;;;8326487;28;20280;-62
2022/03/11 14:55:46;;;;;;;8.47;4.90;;;5.90;1.00;;;;;;8347970;28;20327;-62
2022/03/11 14:59:47;;;;;;;7.50;4.43;;;5.90;1.00;;;;;;8322952;28;20221;-64
2022/03/11 15:03:48;;;;;;;9.90;5.03;;;5.90;1.00;;;;;;8343080;28;20201;-63
2022/03/11 15:07:49;;;;;;;15.03;6.37;;;5.90;1.00;;;;;;8341370;28;20243;-64
2022/03/11 15:11:50;;;;;;;17.97;6.33;;;5.80;1.00;;;;;;8347722;28;20229;-63
2022/03/11 15:15:51;;;;;;;7.47;4.67;;;5.90;1.00;;;;;;8324580;28;20302;-66
2022/03/11 15:19:51;;;;;;;15.27;8.17;;;5.80;1.00;;;;;;8340218;28;20206;-67
2022/03/11 15:23:52;;;;;;;11.17;5.70;;;5.70;1.00;;;;;;8329763;28;20201;-66
2022/03/11 15:27:54;;;;;;;14.60;7.93;;;5.70;1.00;;;;;;8329859;28;20243;-63
2022/03/11 15:31:55;;;;;;;12.43;6.27;;;5.60;1.00;;;;;;8335231;28;20224;-63
2022/03/11 15:35:56;;;;;;;11.63;5.60;;;5.60;1.00;;;;;;8353228;28;20236;-65
2022/03/11 15:39:57;;;;;;;11.17;6.30;;;5.50;1.00;;;;;;8349038;28;20202;-64
2022/03/11 15:44:00;;;;;;;16.07;7.30;;;5.40;1.00;;;;;;8335517;28;20284;-64
2022/03/11 15:48:01;;;;;;;7.60;4.70;;;5.20;1.00;;;;;;8332585;28;20231;-64
2022/03/11 15:52:02;;;;;;;22.17;9.37;;;5.20;1.00;;;;;;8335404;28;20201;-64
2022/03/11 15:56:04;;;;;;;22.03;10.77;;;5.00;1.00;;;;;;8325012;28;20312;-63
2022/03/11 16:00:06;;;;;;;17.23;8.20;;;4.90;1.00;;;;;;8327696;28;20219;-64
2022/03/11 16:04:07;;;;;;;16.80;7.60;;;4.80;1.00;;;;;;8333056;28;20198;-65
2022/03/11 16:08:08;;;;;;;16.70;7.67;;;4.70;1.00;;;;;;8334445;28;20222;-65
2022/03/11 16:12:10;;;;;;;15.37;7.57;;;4.60;1.00;;;;;;8334187;28;20224;-65
2022/03/11 16:16:15;;;;;;;14.47;7.10;;;4.40;1.00;;;;;;8342998;28;20195;-62
2022/03/11 16:20:16;;;;;;;13.10;6.83;;;4.30;1.00;;;;;;8330341;28;20205;-64
2022/03/11 16:24:17;;;;;;;13.27;6.53;;;4.20;1.00;;;;;;8346411;28;20248;-61
2022/03/11 16:28:18;;;;;;;15.00;7.07;;;4.10;1.00;;;;;;8348618;28;20254;-62
2022/03/11 16:32:19;;;;;;;13.40;6.90;;;3.90;1.00;;;;;;8348264;28;20387;-64
2022/03/11 16:36:20;;;;;;;15.97;8.80;;;3.70;1.00;;;;;;8350479;28;20263;-66
2022/03/11 16:40:20;;;;;;;11.67;6.60;;;3.60;1.00;;;;;;8326875;28;20202;-64
2022/03/11 16:44:21;;;;;;;13.10;6.00;;;3.40;1.00;;;;;;8324469;28;20213;-66
2022/03/11 16:48:22;;;;;;;18.23;8.73;;;3.40;1.00;;;;;;8312287;28;20241;-64
2022/03/11 16:52:24;;;;;;;18.77;8.43;;;3.20;1.00;;;;;;8334481;28;20546;-64
2022/03/11 16:56:25;;;;;;;34.57;12.97;;;3.10;1.00;;;;;;8334762;28;20202;-65
2022/03/11 17:00:27;;;;;;;18.30;8.33;;;2.90;1.00;;;;;;8351288;28;20355;-63
2022/03/11 17:04:28;;;;;;;13.83;6.57;;;2.70;1.00;;;;;;8333866;28;20630;-63
2022/03/11 17:08:30;;;;;;;46.07;17.00;;;2.60;1.00;;;;;;8333725;28;20378;-64
2022/03/11 17:12:31;;;;;;;56.57;17.87;;;2.50;1.00;;;;;;8352248;28;20201;-65
2022/03/11 17:16:32;;;;;;;11.83;6.97;;;2.40;1.00;;;;;;8334005;28;20263;-66
2022/03/11 17:20:34;;;;;;;17.63;6.30;;;2.30;1.00;;;;;;8351242;28;20265;-66
2022/03/11 17:24:35;;;;;;;27.47;9.20;;;2.20;1.00;;;;;;8332922;28;20201;-65
2022/03/11 17:28:37;;;;;;;13.80;6.20;;;2.00;1.00;;;;;;8349921;28;20220;-65
2022/03/11 17:32:38;;;;;;;12.30;6.27;;;2.00;1.00;;;;;;8349775;28;20243;-64
2022/03/11 17:36:39;;;;;;;12.23;6.50;;;1.90;1.00;;;;;;8322347;28;20204;-62
2022/03/11 17:40:40;;;;;;;19.00;8.20;;;1.90;1.00;;;;;;8332313;28;20245;-63
2022/03/11 17:44:41;;;;;;;17.43;7.60;;;1.80;1.00;;;;;;8332112;28;20208;-63
2022/03/11 17:48:42;;;;;;;22.73;8.73;;;1.80;1.00;;;;;;8349984;28;20214;-66
2022/03/11 17:52:44;;;;;;;14.40;7.00;;;1.70;1.00;;;;;;8333252;28;20254;-63
2022/03/11 17:56:46;;;;;;;20.13;9.40;;;1.70;1.00;;;;;;8333108;28;20203;-63
2022/03/11 18:00:47;;;;;;;14.10;6.90;;;1.70;1.00;;;;;;8329424;28;20244;-64
2022/03/11 18:04:48;;;;;;;15.33;6.20;;;1.70;1.00;;;;;;8349441;28;20201;-65
2022/03/11 18:08:51;;;;;;;18.17;7.20;;;1.60;1.00;;;;;;8331327;28;20287;-63
2022/03/11 18:12:51;;;;;;;16.10;7.03;;;1.50;1.00;;;;;;8350111;28;20191;-63
2022/03/11 18:16:53;;;;;;;17.43;6.77;;;1.40;1.00;;;;;;8331982;28;20230;-64
2022/03/11 18:20:54;;;;;;;11.83;5.53;;;1.40;1.00;;;;;;8331047;28;20228;-65
2022/03/11 18:24:55;;;;;;;12.67;6.70;;;1.30;1.00;;;;;;8331620;28;20211;-65
2022/03/11 18:28:56;;;;;;;14.23;6.53;;;1.20;1.00;;;;;;8327713;28;20243;-66
2022/03/11 18:32:57;;;;;;;13.67;6.70;;;1.10;1.00;;;;;;8322935;28;20265;-65
2022/03/11 18:36:59;;;;;;;18.17;6.90;;;1.00;1.00;;;;;;8329802;28;20227;-64
2022/03/11 18:41:01;;;;;;;13.13;6.20;;;0.90;1.00;;;;;;8329601;28;20203;-64
2022/03/11 18:45:03;;;;;;;12.53;6.17;;;0.80;1.00;;;;;;8322282;28;20318;-65
2022/03/11 18:49:07;;;;;;;13.10;5.90;;;0.80;1.00;;;;;;8347465;28;20309;-63
2022/03/11 18:53:08;;;;;;;12.17;6.17;;;0.80;1.00;;;;;;8330695;28;20201;-63
2022/03/11 18:57:09;;;;;;;15.17;5.60;;;0.80;1.00;;;;;;8333726;28;20223;-61
2022/03/11 19:01:11;;;;;;;12.23;5.53;;;0.70;1.00;;;;;;8352865;28;20207;-64
2022/03/11 19:05:12;;;;;;;17.17;7.57;;;0.70;1.00;;;;;;8355411;28;20300;-64
2022/03/11 19:09:13;;;;;;;17.07;7.57;;;0.70;1.00;;;;;;8354257;28;20258;-64
2022/03/11 19:13:15;;;;;;;43.00;15.63;;;0.70;10.40;;;;;;8354355;28;20199;-65
2022/03/11 19:17:16;;;;;;;18.73;9.97;;;0.70;15.30;;;;;;8336223;28;20242;-66
2022/03/11 19:21:19;;;;;;;23.33;10.00;;;0.60;26.10;;;;;;8335191;28;20203;-65
2022/03/11 19:25:21;;;;;;;16.77;8.77;;;0.50;41.20;;;;;;8336183;28;20248;-64
2022/03/11 19:29:22;;;;;;;12.67;6.70;;;0.30;58.50;;;;;;8346157;28;20222;-65
2022/03/11 19:33:23;;;;;;;15.87;6.77;;;0.30;77.30;;;;;;8334658;28;20198;-65
2022/03/11 19:37:30;;;;;;;20.73;8.60;;;0.20;92.40;;;;;;8335234;28;20257;-64
2022/03/11 19:41:36;;;;;;;27.23;9.80;;;0.10;99.90;;;;;;8332475;28;20206;-64
2022/03/11 19:45:37;;;;;;;26.90;11.07;;;0.10;99.90;;;;;;8344659;28;20252;-65
2022/03/11 19:49:38;;;;;;;20.53;7.87;;;0.00;99.90;;;;;;8334916;28;20521;-63
2022/03/11 19:53:39;;;;;;;20.53;8.90;;;0.00;99.90;;;;;;8328191;28;20321;-63
2022/03/11 19:57:41;;;;;;;20.50;8.87;;;-0.10;99.90;;;;;;8349108;28;20206;-63
2022/03/11 20:01:42;;;;;;;16.27;7.50;;;-0.10;99.90;;;;;;8345166;28;20220;-64
2022/03/11 20:05:43;;;;;;;13.77;7.40;;;-0.10;99.90;;;;;;8351480;28;20205;-63
2022/03/11 20:09:45;;;;;;;13.57;5.67;;;-0.20;99.90;;;;;;8332352;28;20297;-63
2022/03/11 20:13:49;;;;;;;14.63;6.13;;;-0.20;99.90;;;;;;8322465;28;20562;-65
2022/03/11 20:17:50;;;;;;;18.83;7.20;;;-0.40;99.90;;;;;;8350323;28;20244;-65
2022/03/11 20:21:54;;;;;;;14.53;6.80;;;-0.50;99.90;;;;;;8330994;28;20209;-64
2022/03/11 20:25:55;;;;;;;19.30;6.53;;;-0.50;99.90;;;;;;8328598;28;20213;-62
2022/03/11 20:29:56;;;;;;;13.80;6.37;;;-0.60;99.90;;;;;;8347961;28;20247;-62
2022/03/11 20:33:57;;;;;;;17.07;6.77;;;-0.60;99.90;;;;;;8328965;28;20205;-62
2022/03/11 20:37:59;;;;;;;17.83;6.63;;;-0.70;99.90;;;;;;8333123;28;20216;-64
2022/03/11 20:41:59;;;;;;;15.07;7.13;;;-0.80;99.90;;;;;;8334779;28;20203;-65
2022/03/11 20:46:01;;;;;;;16.47;6.47;;;-0.90;99.90;;;;;;8352319;28;20222;-64
2022/03/11 20:50:06;;;;;;;15.37;7.47;;;-0.90;99.90;;;;;;8333832;28;20217;-64
2022/03/11 20:54:09;;;;;;;16.03;7.53;;;-1.00;99.90;;;;;;8352679;28;20221;-65
2022/03/11 20:58:10;;;;;;;17.27;7.30;;;-1.10;99.90;;;;;;8333963;28;20209;-65
2022/03/11 21:02:12;;;;;;;15.93;7.47;;;-1.20;99.90;;;;;;8331960;28;20209;-64